sensor_id;sensor_type;location;lat;lon;timestamp;temperature;humidity
27890;DHT22;15238;49.082;9.102;2023-11-18T00:01:25;6.20;99.90
27890;DHT22;15238;49.082;9.102;2023-11-18T00:03:25;6.30;99.90
27890;DHT22;15238;49.082;9.102;2023-11-18T00:05:26;6.30;99.90
27890;DHT22;15238;49.082;9.102;2023-11-18T00:07:26;6.30;99.90
27890;DHT22;15238;49.082;9.102;2023-11-18T00:09:27;6.30;99.90
27890;DHT22;15238;49.082;9.102;2023-11-18T00:11:27;6.30;99.90
27890;DHT22;15238;49.082;9.102;2023-11-18T00:13:28;6.30;99.90
27890;DHT22;15238;49.082;9.102;2023-11-18T00:15:29;6.20;99.90
27890;DHT22;15238;49.082;9.102;2023-11-18T00:17:32;6.30;99.90
27890;DHT22;15238;49.082;9.102;2023-11-18T00:19:33;6.30;99.90
27890;DHT22;15238;49.082;9.102;2023-11-18T00:21:35;6.30;99.90
27890;DHT22;15238;49.082;9.102;2023-11-18T00:23:36;6.30;99.90
27890;DHT22;15238;49.082;9.102;2023-11-18T00:25:37;6.30;99.90
27890;DHT22;15238;49.082;9.102;2023-11-18T00:27:40;6.30;99.90
27890;DHT22;15238;49.082;9.102;2023-11-18T00:29:41;6.20;99.90
27890;DHT22;15238;49.082;9.102;2023-11-18T00:31:41;6.30;99.90
27890;DHT22;15238;49.082;9.102;2023-11-18T00:33:42;6.20;99.90
27890;DHT22;15238;49.082;9.102;2023-11-18T00:35:42;6.30;99.90
27890;DHT22;15238;49.082;9.102;2023-11-18T00:37:44;6.30;99.90
27890;DHT22;15238;49.082;9.102;2023-11-18T00:39:44;6.30;99.90
27890;DHT22;15238;49.082;9.102;2023-11-18T00:41:45;6.30;99.90
27890;DHT22;15238;49.082;9.102;2023-11-18T00:43:46;6.30;99.90
27890;DHT22;15238;49.082;9.102;2023-11-18T00:45:46;6.30;99.90
27890;DHT22;15238;49.082;9.102;2023-11-18T00:47:47;6.30;99.90
27890;DHT22;15238;49.082;9.102;2023-11-18T00:49:47;6.30;99.90
27890;DHT22;15238;49.082;9.102;2023-11-18T00:51:49;6.30;99.90
27890;DHT22;15238;49.082;9.102;2023-11-18T00:53:50;6.30;99.90
27890;DHT22;15238;49.082;9.102;2023-11-18T00:55:50;6.30;99.90
27890;DHT22;15238;49.082;9.102;2023-11-18T00:57:51;6.40;99.90
27890;DHT22;15238;49.082;9.102;2023-11-18T00:59:51;6.30;99.90
27890;DHT22;15238;49.082;9.102;2023-11-18T01:01:52;6.30;99.90
27890;DHT22;15238;49.082;9.102;2023-11-18T01:03:52;6.30;99.90
27890;DHT22;15238;49.082;9.102;2023-11-18T01:05:54;6.30;99.90
27890;DHT22;15238;49.082;9.102;2023-11-18T01:07:54;6.30;99.90
27890;DHT22;15238;49.082;9.102;2023-11-18T01:09:54;6.40;99.90
27890;DHT22;15238;49.082;9.102;2023-11-18T01:11:55;6.30;99.90
27890;DHT22;15238;49.082;9.102;2023-11-18T01:13:55;6.40;99.90
27890;DHT22;15238;49.082;9.102;2023-11-18T01:15:56;6.30;99.90
27890;DHT22;15238;49.082;9.102;2023-11-18T01:17:57;6.30;99.90
27890;DHT22;15238;49.082;9.102;2023-11-18T01:19:58;6.40;99.90
27890;DHT22;15238;49.082;9.102;2023-11-18T01:21:59;6.40;99.90
27890;DHT22;15238;49.082;9.102;2023-11-18T01:24:00;6.40;99.90
27890;DHT22;15238;49.082;9.102;2023-11-18T01:26:00;6.40;99.90
27890;DHT22;15238;49.082;9.102;2023-11-18T01:28:01;6.30;99.90
27890;DHT22;15238;49.082;9.102;2023-11-18T01:30:04;6.30;99.90
27890;DHT22;15238;49.082;9.102;2023-11-18T01:32:06;6.30;99.90
27890;DHT22;15238;49.082;9.102;2023-11-18T01:34:09;6.30;99.90
27890;DHT22;15238;49.082;9.102;2023-11-18T01:36:10;6.40;99.90
27890;DHT22;15238;49.082;9.102;2023-11-18T01:38:11;6.40;99.90
27890;DHT22;15238;49.082;9.102;2023-11-18T01:40:12;6.40;99.90
27890;DHT22;15238;49.082;9.102;2023-11-18T01:42:13;6.40;99.90
27890;DHT22;15238;49.082;9.102;2023-11-18T01:44:13;6.40;99.90
27890;DHT22;15238;49.082;9.102;2023-11-18T01:46:16;6.40;99.90
27890;DHT22;15238;49.082;9.102;2023-11-18T01:48:18;6.40;99.90
27890;DHT22;15238;49.082;9.102;2023-11-18T01:50:19;6.40;99.90
27890;DHT22;15238;49.082;9.102;2023-11-18T01:52:19;6.40;99.90
27890;DHT22;15238;49.082;9.102;2023-11-18T01:54:22;6.40;99.90
27890;DHT22;15238;49.082;9.102;2023-11-18T01:56:24;6.40;99.90
27890;DHT22;15238;49.082;9.102;2023-11-18T01:58:25;6.40;99.90
27890;DHT22;15238;49.082;9.102;2023-11-18T02:00:28;6.40;99.90
27890;DHT22;15238;49.082;9.102;2023-11-18T02:02:31;6.40;99.90
27890;DHT22;15238;49.082;9.102;2023-11-18T02:04:33;6.40;99.90
27890;DHT22;15238;49.082;9.102;2023-11-18T02:06:33;6.40;99.90
27890;DHT22;15238;49.082;9.102;2023-11-18T02:08:34;6.40;99.90
27890;DHT22;15238;49.082;9.102;2023-11-18T02:10:45;6.40;99.90
27890;DHT22;15238;49.082;9.102;2023-11-18T02:12:55;6.40;99.90
27890;DHT22;15238;49.082;9.102;2023-11-18T02:15:00;6.40;99.90
27890;DHT22;15238;49.082;9.102;2023-11-18T02:17:02;6.40;99.90
27890;DHT22;15238;49.082;9.102;2023-11-18T02:19:21;6.40;99.90
27890;DHT22;15238;49.082;9.102;2023-11-18T02:21:22;6.40;99.90
27890;DHT22;15238;49.082;9.102;2023-11-18T02:23:26;6.40;99.90
27890;DHT22;15238;49.082;9.102;2023-11-18T02:25:27;6.40;99.90
27890;DHT22;15238;49.082;9.102;2023-11-18T02:27:30;6.40;99.90
27890;DHT22;15238;49.082;9.102;2023-11-18T02:29:43;6.40;99.90
27890;DHT22;15238;49.082;9.102;2023-11-18T02:31:47;6.40;99.90
27890;DHT22;15238;49.082;9.102;2023-11-18T02:34:12;6.40;99.90
27890;DHT22;15238;49.082;9.102;2023-11-18T02:36:27;6.30;99.90
27890;DHT22;15238;49.082;9.102;2023-11-18T02:38:46;6.30;99.90
27890;DHT22;15238;49.082;9.102;2023-11-18T02:40:48;6.30;99.90
27890;DHT22;15238;49.082;9.102;2023-11-18T02:42:53;6.20;99.90
27890;DHT22;15238;49.082;9.102;2023-11-18T02:44:54;6.30;99.90
27890;DHT22;15238;49.082;9.102;2023-11-18T02:46:59;6.30;99.90
27890;DHT22;15238;49.082;9.102;2023-11-18T02:49:00;6.30;99.90
27890;DHT22;15238;49.082;9.102;2023-11-18T02:51:00;6.30;99.90
27890;DHT22;15238;49.082;9.102;2023-11-18T02:53:02;6.30;99.90
27890;DHT22;15238;49.082;9.102;2023-11-18T02:55:04;6.30;99.90
27890;DHT22;15238;49.082;9.102;2023-11-18T02:57:06;6.20;99.90
27890;DHT22;15238;49.082;9.102;2023-11-18T02:59:08;6.30;99.90
27890;DHT22;15238;49.082;9.102;2023-11-18T03:01:10;6.20;99.90
27890;DHT22;15238;49.082;9.102;2023-11-18T03:03:11;6.20;99.90
27890;DHT22;15238;49.082;9.102;2023-11-18T03:05:11;6.20;99.90
27890;DHT22;15238;49.082;9.102;2023-11-18T03:07:12;6.20;99.90
27890;DHT22;15238;49.082;9.102;2023-11-18T03:09:12;6.20;99.90
27890;DHT22;15238;49.082;9.102;2023-11-18T03:11:14;6.20;99.90
27890;DHT22;15238;49.082;9.102;2023-11-18T03:13:14;6.20;99.90
27890;DHT22;15238;49.082;9.102;2023-11-18T03:15:15;6.20;99.90
27890;DHT22;15238;49.082;9.102;2023-11-18T03:17:19;6.20;99.90
27890;DHT22;15238;49.082;9.102;2023-11-18T03:19:20;6.20;99.90
27890;DHT22;15238;49.082;9.102;2023-11-18T03:21:21;6.20;99.90
27890;DHT22;15238;49.082;9.102;2023-11-18T03:23:21;6.20;99.90
27890;DHT22;15238;49.082;9.102;2023-11-18T03:25:22;6.20;99.90
27890;DHT22;15238;49.082;9.102;2023-11-18T03:27:22;6.20;99.90
27890;DHT22;15238;49.082;9.102;2023-11-18T03:29:23;6.20;99.90
27890;DHT22;15238;49.082;9.102;2023-11-18T03:31:24;6.20;99.90
27890;DHT22;15238;49.082;9.102;2023-11-18T03:33:24;6.10;99.90
27890;DHT22;15238;49.082;9.102;2023-11-18T03:35:25;6.10;99.90
27890;DHT22;15238;49.082;9.102;2023-11-18T03:37:26;6.00;99.90
27890;DHT22;15238;49.082;9.102;2023-11-18T03:39:26;6.10;99.90
27890;DHT22;15238;49.082;9.102;2023-11-18T03:41:27;5.90;99.90
27890;DHT22;15238;49.082;9.102;2023-11-18T03:43:28;5.80;99.90
27890;DHT22;15238;49.082;9.102;2023-11-18T03:45:29;5.70;99.90
27890;DHT22;15238;49.082;9.102;2023-11-18T03:47:29;5.60;99.90
27890;DHT22;15238;49.082;9.102;2023-11-18T03:49:31;5.60;99.90
27890;DHT22;15238;49.082;9.102;2023-11-18T03:51:32;5.60;99.90
27890;DHT22;15238;49.082;9.102;2023-11-18T03:53:32;5.50;99.90
27890;DHT22;15238;49.082;9.102;2023-11-18T03:55:34;5.50;99.90
27890;DHT22;15238;49.082;9.102;2023-11-18T03:57:34;5.50;99.90
27890;DHT22;15238;49.082;9.102;2023-11-18T03:59:35;5.40;99.90
27890;DHT22;15238;49.082;9.102;2023-11-18T04:01:35;5.40;99.90
27890;DHT22;15238;49.082;9.102;2023-11-18T04:03:36;5.40;99.90
27890;DHT22;15238;49.082;9.102;2023-11-18T04:05:37;5.30;99.90
27890;DHT22;15238;49.082;9.102;2023-11-18T04:07:39;5.30;99.90
27890;DHT22;15238;49.082;9.102;2023-11-18T04:09:42;5.30;99.90
27890;DHT22;15238;49.082;9.102;2023-11-18T04:11:44;5.30;99.90
27890;DHT22;15238;49.082;9.102;2023-11-18T04:13:46;5.30;99.90
27890;DHT22;15238;49.082;9.102;2023-11-18T04:15:46;5.30;99.90
27890;DHT22;15238;49.082;9.102;2023-11-18T04:17:47;5.30;99.90
27890;DHT22;15238;49.082;9.102;2023-11-18T04:19:47;5.40;99.90
27890;DHT22;15238;49.082;9.102;2023-11-18T04:21:48;5.40;99.90
27890;DHT22;15238;49.082;9.102;2023-11-18T04:23:49;5.40;99.90
27890;DHT22;15238;49.082;9.102;2023-11-18T04:25:50;5.40;99.90
27890;DHT22;15238;49.082;9.102;2023-11-18T04:27:50;5.40;99.90
27890;DHT22;15238;49.082;9.102;2023-11-18T04:29:51;5.40;99.90
27890;DHT22;15238;49.082;9.102;2023-11-18T04:31:51;5.50;99.90
27890;DHT22;15238;49.082;9.102;2023-11-18T04:33:53;5.50;99.90
27890;DHT22;15238;49.082;9.102;2023-11-18T04:35:56;5.60;99.90
27890;DHT22;15238;49.082;9.102;2023-11-18T04:37:59;5.60;99.90
27890;DHT22;15238;49.082;9.102;2023-11-18T04:40:03;5.60;99.90
27890;DHT22;15238;49.082;9.102;2023-11-18T04:42:04;5.60;99.90
27890;DHT22;15238;49.082;9.102;2023-11-18T04:44:05;5.70;99.90
27890;DHT22;15238;49.082;9.102;2023-11-18T04:46:06;5.60;99.90
27890;DHT22;15238;49.082;9.102;2023-11-18T04:48:06;5.70;99.90
27890;DHT22;15238;49.082;9.102;2023-11-18T04:50:07;5.70;99.90
27890;DHT22;15238;49.082;9.102;2023-11-18T04:52:09;5.70;99.90
27890;DHT22;15238;49.082;9.102;2023-11-18T04:54:11;5.70;99.90
27890;DHT22;15238;49.082;9.102;2023-11-18T04:56:11;5.70;99.90
27890;DHT22;15238;49.082;9.102;2023-11-18T04:58:12;5.80;99.90
27890;DHT22;15238;49.082;9.102;2023-11-18T05:00:13;5.80;99.90
27890;DHT22;15238;49.082;9.102;2023-11-18T05:02:17;5.80;99.90
27890;DHT22;15238;49.082;9.102;2023-11-18T05:04:17;5.80;99.90
27890;DHT22;15238;49.082;9.102;2023-11-18T05:06:17;5.80;99.90
27890;DHT22;15238;49.082;9.102;2023-11-18T05:08:20;5.80;99.90
27890;DHT22;15238;49.082;9.102;2023-11-18T05:10:21;5.80;99.90
27890;DHT22;15238;49.082;9.102;2023-11-18T05:12:22;5.80;99.90
27890;DHT22;15238;49.082;9.102;2023-11-18T05:14:22;5.80;99.90
27890;DHT22;15238;49.082;9.102;2023-11-18T05:16:23;5.80;99.90
27890;DHT22;15238;49.082;9.102;2023-11-18T05:18:23;5.90;99.90
27890;DHT22;15238;49.082;9.102;2023-11-18T05:20:24;5.90;99.90
27890;DHT22;15238;49.082;9.102;2023-11-18T05:22:24;5.80;99.90
27890;DHT22;15238;49.082;9.102;2023-11-18T05:24:25;5.70;99.90
27890;DHT22;15238;49.082;9.102;2023-11-18T05:26:25;5.80;99.90
27890;DHT22;15238;49.082;9.102;2023-11-18T05:28:27;5.80;99.90
27890;DHT22;15238;49.082;9.102;2023-11-18T05:30:27;5.80;99.90
27890;DHT22;15238;49.082;9.102;2023-11-18T05:32:28;5.80;99.90
27890;DHT22;15238;49.082;9.102;2023-11-18T05:34:29;5.80;99.90
27890;DHT22;15238;49.082;9.102;2023-11-18T05:36:29;5.80;99.90
27890;DHT22;15238;49.082;9.102;2023-11-18T05:38:37;5.80;99.90
27890;DHT22;15238;49.082;9.102;2023-11-18T05:40:38;5.80;99.90
27890;DHT22;15238;49.082;9.102;2023-11-18T05:42:43;5.90;99.90
27890;DHT22;15238;49.082;9.102;2023-11-18T05:44:46;5.90;99.90
27890;DHT22;15238;49.082;9.102;2023-11-18T05:46:46;5.90;99.90
27890;DHT22;15238;49.082;9.102;2023-11-18T05:48:47;5.90;99.90
27890;DHT22;15238;49.082;9.102;2023-11-18T05:50:48;5.90;99.90
27890;DHT22;15238;49.082;9.102;2023-11-18T05:52:49;5.90;99.90
27890;DHT22;15238;49.082;9.102;2023-11-18T05:54:49;5.80;99.90
27890;DHT22;15238;49.082;9.102;2023-11-18T05:56:50;5.90;99.90
27890;DHT22;15238;49.082;9.102;2023-11-18T05:58:52;5.90;99.90
27890;DHT22;15238;49.082;9.102;2023-11-18T06:00:55;5.90;99.90
27890;DHT22;15238;49.082;9.102;2023-11-18T06:02:56;5.90;99.90
27890;DHT22;15238;49.082;9.102;2023-11-18T06:04:56;5.90;99.90
27890;DHT22;15238;49.082;9.102;2023-11-18T06:06:57;5.90;99.90
27890;DHT22;15238;49.082;9.102;2023-11-18T06:08:57;5.90;99.90
27890;DHT22;15238;49.082;9.102;2023-11-18T06:11:05;5.90;99.90
27890;DHT22;15238;49.082;9.102;2023-11-18T06:13:13;5.80;99.90
27890;DHT22;15238;49.082;9.102;2023-11-18T06:15:13;5.80;99.90
27890;DHT22;15238;49.082;9.102;2023-11-18T06:17:14;5.80;99.90
27890;DHT22;15238;49.082;9.102;2023-11-18T06:19:15;5.70;99.90
27890;DHT22;15238;49.082;9.102;2023-11-18T06:21:17;5.70;99.90
27890;DHT22;15238;49.082;9.102;2023-11-18T06:23:18;5.70;99.90
27890;DHT22;15238;49.082;9.102;2023-11-18T06:25:21;5.70;99.90
27890;DHT22;15238;49.082;9.102;2023-11-18T06:27:23;5.70;99.90
27890;DHT22;15238;49.082;9.102;2023-11-18T06:29:24;5.70;99.90
27890;DHT22;15238;49.082;9.102;2023-11-18T06:31:25;5.70;99.90
27890;DHT22;15238;49.082;9.102;2023-11-18T06:33:25;5.70;99.90
27890;DHT22;15238;49.082;9.102;2023-11-18T06:35:28;5.80;99.90
27890;DHT22;15238;49.082;9.102;2023-11-18T06:37:33;5.80;99.90
27890;DHT22;15238;49.082;9.102;2023-11-18T06:39:33;5.70;99.90
27890;DHT22;15238;49.082;9.102;2023-11-18T06:41:40;5.70;99.90
27890;DHT22;15238;49.082;9.102;2023-11-18T06:43:49;5.70;99.90
27890;DHT22;15238;49.082;9.102;2023-11-18T06:45:55;5.70;99.90
27890;DHT22;15238;49.082;9.102;2023-11-18T06:47:56;5.70;99.90
27890;DHT22;15238;49.082;9.102;2023-11-18T06:49:56;5.70;99.90
27890;DHT22;15238;49.082;9.102;2023-11-18T06:51:57;5.70;99.90
27890;DHT22;15238;49.082;9.102;2023-11-18T06:53:58;5.70;99.90
27890;DHT22;15238;49.082;9.102;2023-11-18T06:55:58;5.60;99.90
27890;DHT22;15238;49.082;9.102;2023-11-18T06:57:59;5.60;99.90
27890;DHT22;15238;49.082;9.102;2023-11-18T06:59:59;5.60;99.90
27890;DHT22;15238;49.082;9.102;2023-11-18T07:02:00;5.60;99.90
27890;DHT22;15238;49.082;9.102;2023-11-18T07:04:00;5.60;99.90
27890;DHT22;15238;49.082;9.102;2023-11-18T07:06:00;5.60;99.90
27890;DHT22;15238;49.082;9.102;2023-11-18T07:08:01;5.60;99.90
27890;DHT22;15238;49.082;9.102;2023-11-18T07:10:04;5.60;99.90
27890;DHT22;15238;49.082;9.102;2023-11-18T07:12:05;5.60;99.90
27890;DHT22;15238;49.082;9.102;2023-11-18T07:14:06;5.60;99.90
27890;DHT22;15238;49.082;9.102;2023-11-18T07:16:09;5.60;99.90
27890;DHT22;15238;49.082;9.102;2023-11-18T07:18:10;5.60;99.90
27890;DHT22;15238;49.082;9.102;2023-11-18T07:20:11;5.70;99.90
27890;DHT22;15238;49.082;9.102;2023-11-18T07:22:13;5.70;99.90
27890;DHT22;15238;49.082;9.102;2023-11-18T07:24:15;5.90;99.90
27890;DHT22;15238;49.082;9.102;2023-11-18T07:26:16;6.10;99.90
27890;DHT22;15238;49.082;9.102;2023-11-18T07:28:16;6.20;99.90
27890;DHT22;15238;49.082;9.102;2023-11-18T07:30:17;6.10;99.90
27890;DHT22;15238;49.082;9.102;2023-11-18T07:32:18;6.10;99.90
27890;DHT22;15238;49.082;9.102;2023-11-18T07:34:19;6.20;99.90
27890;DHT22;15238;49.082;9.102;2023-11-18T07:36:20;6.20;99.90
27890;DHT22;15238;49.082;9.102;2023-11-18T07:38:21;6.20;99.90
27890;DHT22;15238;49.082;9.102;2023-11-18T07:40:21;6.30;99.90
27890;DHT22;15238;49.082;9.102;2023-11-18T07:42:28;6.30;99.90
27890;DHT22;15238;49.082;9.102;2023-11-18T07:44:28;6.30;99.90
27890;DHT22;15238;49.082;9.102;2023-11-18T07:46:29;6.30;99.90
27890;DHT22;15238;49.082;9.102;2023-11-18T07:48:31;6.40;99.90
27890;DHT22;15238;49.082;9.102;2023-11-18T07:50:37;6.50;99.90
27890;DHT22;15238;49.082;9.102;2023-11-18T07:52:37;6.60;99.90
27890;DHT22;15238;49.082;9.102;2023-11-18T07:54:38;6.70;99.90
27890;DHT22;15238;49.082;9.102;2023-11-18T07:56:40;6.80;99.90
27890;DHT22;15238;49.082;9.102;2023-11-18T07:58:42;6.70;99.90
27890;DHT22;15238;49.082;9.102;2023-11-18T08:00:45;6.80;99.90
27890;DHT22;15238;49.082;9.102;2023-11-18T08:02:46;6.80;99.90
27890;DHT22;15238;49.082;9.102;2023-11-18T08:04:46;6.80;99.90
27890;DHT22;15238;49.082;9.102;2023-11-18T08:06:49;6.80;99.90
27890;DHT22;15238;49.082;9.102;2023-11-18T08:08:49;6.80;99.90
27890;DHT22;15238;49.082;9.102;2023-11-18T08:10:50;6.80;99.90
27890;DHT22;15238;49.082;9.102;2023-11-18T08:12:50;6.70;99.90
27890;DHT22;15238;49.082;9.102;2023-11-18T08:14:54;6.70;99.90
27890;DHT22;15238;49.082;9.102;2023-11-18T08:16:54;6.70;99.90
27890;DHT22;15238;49.082;9.102;2023-11-18T08:18:57;6.70;99.90
27890;DHT22;15238;49.082;9.102;2023-11-18T08:20:57;6.80;99.90
27890;DHT22;15238;49.082;9.102;2023-11-18T08:22:58;6.80;99.90
27890;DHT22;15238;49.082;9.102;2023-11-18T08:24:58;6.80;99.90
27890;DHT22;15238;49.082;9.102;2023-11-18T08:26:59;6.80;99.90
27890;DHT22;15238;49.082;9.102;2023-11-18T08:29:00;6.90;99.90
27890;DHT22;15238;49.082;9.102;2023-11-18T08:31:01;6.80;99.90
27890;DHT22;15238;49.082;9.102;2023-11-18T08:33:02;6.80;99.90
27890;DHT22;15238;49.082;9.102;2023-11-18T08:35:08;6.90;99.90
27890;DHT22;15238;49.082;9.102;2023-11-18T08:37:09;6.90;99.90
27890;DHT22;15238;49.082;9.102;2023-11-18T08:39:10;6.90;99.90
27890;DHT22;15238;49.082;9.102;2023-11-18T08:41:11;6.80;99.90
27890;DHT22;15238;49.082;9.102;2023-11-18T08:43:12;6.90;99.90
27890;DHT22;15238;49.082;9.102;2023-11-18T08:45:14;6.90;99.90
27890;DHT22;15238;49.082;9.102;2023-11-18T08:47:14;6.90;99.90
27890;DHT22;15238;49.082;9.102;2023-11-18T08:49:15;6.90;99.90
27890;DHT22;15238;49.082;9.102;2023-11-18T08:51:21;6.90;99.90
27890;DHT22;15238;49.082;9.102;2023-11-18T08:53:22;6.90;99.90
27890;DHT22;15238;49.082;9.102;2023-11-18T08:55:27;6.80;99.90
27890;DHT22;15238;49.082;9.102;2023-11-18T08:57:40;6.90;99.90
27890;DHT22;15238;49.082;9.102;2023-11-18T08:59:58;6.80;99.90
27890;DHT22;15238;49.082;9.102;2023-11-18T09:01:59;6.90;99.90
27890;DHT22;15238;49.082;9.102;2023-11-18T09:04:00;6.90;99.90
27890;DHT22;15238;49.082;9.102;2023-11-18T09:06:03;6.90;99.90
27890;DHT22;15238;49.082;9.102;2023-11-18T09:08:05;6.90;99.90
27890;DHT22;15238;49.082;9.102;2023-11-18T09:10:06;6.90;99.90
27890;DHT22;15238;49.082;9.102;2023-11-18T09:12:11;7.00;99.90
27890;DHT22;15238;49.082;9.102;2023-11-18T09:14:12;7.00;99.90
27890;DHT22;15238;49.082;9.102;2023-11-18T09:16:15;7.10;99.90
27890;DHT22;15238;49.082;9.102;2023-11-18T09:18:16;7.20;99.90
27890;DHT22;15238;49.082;9.102;2023-11-18T09:20:18;7.20;99.90
27890;DHT22;15238;49.082;9.102;2023-11-18T09:22:22;7.30;99.90
27890;DHT22;15238;49.082;9.102;2023-11-18T09:24:24;7.50;99.90
27890;DHT22;15238;49.082;9.102;2023-11-18T09:26:25;7.50;99.90
27890;DHT22;15238;49.082;9.102;2023-11-18T09:28:30;7.60;99.90
27890;DHT22;15238;49.082;9.102;2023-11-18T09:30:30;7.70;99.90
27890;DHT22;15238;49.082;9.102;2023-11-18T09:32:34;7.80;99.90
27890;DHT22;15238;49.082;9.102;2023-11-18T09:34:34;7.80;99.90
27890;DHT22;15238;49.082;9.102;2023-11-18T09:36:35;7.90;99.90
27890;DHT22;15238;49.082;9.102;2023-11-18T09:38:37;7.90;99.90
27890;DHT22;15238;49.082;9.102;2023-11-18T09:40:42;8.00;99.90
27890;DHT22;15238;49.082;9.102;2023-11-18T09:42:43;7.90;99.90
27890;DHT22;15238;49.082;9.102;2023-11-18T09:44:44;7.90;99.90
27890;DHT22;15238;49.082;9.102;2023-11-18T09:46:49;7.90;99.90
27890;DHT22;15238;49.082;9.102;2023-11-18T09:49:22;8.00;99.90
27890;DHT22;15238;49.082;9.102;2023-11-18T09:51:37;8.10;99.90
27890;DHT22;15238;49.082;9.102;2023-11-18T09:53:38;8.10;99.90
27890;DHT22;15238;49.082;9.102;2023-11-18T09:55:56;8.10;99.90
27890;DHT22;15238;49.082;9.102;2023-11-18T09:58:04;8.10;99.90
27890;DHT22;15238;49.082;9.102;2023-11-18T10:00:11;8.20;99.90
27890;DHT22;15238;49.082;9.102;2023-11-18T10:02:24;8.10;99.90
27890;DHT22;15238;49.082;9.102;2023-11-18T10:04:25;8.10;99.90
27890;DHT22;15238;49.082;9.102;2023-11-18T10:06:28;8.10;99.90
27890;DHT22;15238;49.082;9.102;2023-11-18T10:08:35;8.10;99.90
27890;DHT22;15238;49.082;9.102;2023-11-18T10:10:38;8.20;99.90
27890;DHT22;15238;49.082;9.102;2023-11-18T10:12:48;8.20;99.90
27890;DHT22;15238;49.082;9.102;2023-11-18T10:14:58;8.20;99.90
27890;DHT22;15238;49.082;9.102;2023-11-18T10:16:58;8.20;99.90
27890;DHT22;15238;49.082;9.102;2023-11-18T10:19:03;8.30;99.90
27890;DHT22;15238;49.082;9.102;2023-11-18T10:21:08;8.40;99.90
27890;DHT22;15238;49.082;9.102;2023-11-18T10:23:13;8.40;99.90
27890;DHT22;15238;49.082;9.102;2023-11-18T10:25:25;8.40;99.90
27890;DHT22;15238;49.082;9.102;2023-11-18T10:27:29;8.50;99.90
27890;DHT22;15238;49.082;9.102;2023-11-18T10:29:29;8.50;99.90
27890;DHT22;15238;49.082;9.102;2023-11-18T10:31:30;8.40;99.90
27890;DHT22;15238;49.082;9.102;2023-11-18T10:33:36;8.40;99.90
27890;DHT22;15238;49.082;9.102;2023-11-18T10:35:37;8.50;99.90
27890;DHT22;15238;49.082;9.102;2023-11-18T10:37:37;8.50;99.90
27890;DHT22;15238;49.082;9.102;2023-11-18T10:39:47;8.50;99.90
27890;DHT22;15238;49.082;9.102;2023-11-18T10:41:51;8.50;99.90
27890;DHT22;15238;49.082;9.102;2023-11-18T10:44:05;8.50;99.90
27890;DHT22;15238;49.082;9.102;2023-11-18T10:46:08;8.50;99.90
27890;DHT22;15238;49.082;9.102;2023-11-18T10:48:12;8.50;99.90
27890;DHT22;15238;49.082;9.102;2023-11-18T10:50:16;8.60;99.90
27890;DHT22;15238;49.082;9.102;2023-11-18T10:52:20;8.70;99.90
27890;DHT22;15238;49.082;9.102;2023-11-18T10:54:20;8.70;99.90
27890;DHT22;15238;49.082;9.102;2023-11-18T10:56:22;8.70;99.90
27890;DHT22;15238;49.082;9.102;2023-11-18T10:58:35;8.70;99.90
27890;DHT22;15238;49.082;9.102;2023-11-18T11:01:06;8.70;99.90
27890;DHT22;15238;49.082;9.102;2023-11-18T11:03:11;8.80;99.90
27890;DHT22;15238;49.082;9.102;2023-11-18T11:05:28;8.80;99.90
27890;DHT22;15238;49.082;9.102;2023-11-18T11:07:32;8.80;99.90
27890;DHT22;15238;49.082;9.102;2023-11-18T11:09:33;8.90;99.90
27890;DHT22;15238;49.082;9.102;2023-11-18T11:11:40;8.90;99.90
27890;DHT22;15238;49.082;9.102;2023-11-18T11:13:44;8.80;99.90
27890;DHT22;15238;49.082;9.102;2023-11-18T11:15:48;8.80;99.90
27890;DHT22;15238;49.082;9.102;2023-11-18T11:17:54;8.80;99.90
27890;DHT22;15238;49.082;9.102;2023-11-18T11:20:05;8.90;99.90
27890;DHT22;15238;49.082;9.102;2023-11-18T11:22:20;9.00;99.90
27890;DHT22;15238;49.082;9.102;2023-11-18T11:26:50;9.10;99.90
27890;DHT22;15238;49.082;9.102;2023-11-18T11:31:21;9.20;99.90
27890;DHT22;15238;49.082;9.102;2023-11-18T11:33:33;9.20;99.90
27890;DHT22;15238;49.082;9.102;2023-11-18T11:35:43;9.10;99.90
27890;DHT22;15238;49.082;9.102;2023-11-18T11:37:46;9.20;99.90
27890;DHT22;15238;49.082;9.102;2023-11-18T11:39:50;9.20;99.90
27890;DHT22;15238;49.082;9.102;2023-11-18T11:41:54;9.30;99.90
27890;DHT22;15238;49.082;9.102;2023-11-18T11:43:59;9.30;99.90
27890;DHT22;15238;49.082;9.102;2023-11-18T11:46:01;9.30;99.90
27890;DHT22;15238;49.082;9.102;2023-11-18T11:48:11;9.30;99.90
27890;DHT22;15238;49.082;9.102;2023-11-18T11:50:21;9.30;99.90
27890;DHT22;15238;49.082;9.102;2023-11-18T11:52:33;9.30;99.90
27890;DHT22;15238;49.082;9.102;2023-11-18T11:54:47;9.40;99.90
27890;DHT22;15238;49.082;9.102;2023-11-18T11:56:50;9.40;99.90
27890;DHT22;15238;49.082;9.102;2023-11-18T11:58:59;9.40;99.90
27890;DHT22;15238;49.082;9.102;2023-11-18T12:01:26;9.40;99.90
27890;DHT22;15238;49.082;9.102;2023-11-18T12:03:33;9.30;99.90
27890;DHT22;15238;49.082;9.102;2023-11-18T12:05:40;9.30;99.90
27890;DHT22;15238;49.082;9.102;2023-11-18T12:07:44;9.30;99.90
27890;DHT22;15238;49.082;9.102;2023-11-18T12:09:47;9.30;99.90
27890;DHT22;15238;49.082;9.102;2023-11-18T12:11:48;9.20;99.90
27890;DHT22;15238;49.082;9.102;2023-11-18T12:14:08;9.30;99.90
27890;DHT22;15238;49.082;9.102;2023-11-18T12:17:02;9.30;99.90
27890;DHT22;15238;49.082;9.102;2023-11-18T12:21:54;9.20;99.90
27890;DHT22;15238;49.082;9.102;2023-11-18T12:24:16;9.20;99.90
27890;DHT22;15238;49.082;9.102;2023-11-18T12:26:38;9.20;99.90
27890;DHT22;15238;49.082;9.102;2023-11-18T12:28:40;9.20;99.90
27890;DHT22;15238;49.082;9.102;2023-11-18T12:30:46;9.20;99.90
27890;DHT22;15238;49.082;9.102;2023-11-18T12:32:58;9.20;99.90
27890;DHT22;15238;49.082;9.102;2023-11-18T12:34:59;9.20;99.90
27890;DHT22;15238;49.082;9.102;2023-11-18T12:40:09;9.10;99.90
27890;DHT22;15238;49.082;9.102;2023-11-18T12:46:59;9.00;99.90
27890;DHT22;15238;49.082;9.102;2023-11-18T12:49:15;9.00;99.90
27890;DHT22;15238;49.082;9.102;2023-11-18T12:51:16;9.00;99.90
27890;DHT22;15238;49.082;9.102;2023-11-18T12:53:19;9.00;99.90
27890;DHT22;15238;49.082;9.102;2023-11-18T12:55:20;9.00;99.90
27890;DHT22;15238;49.082;9.102;2023-11-18T12:57:21;9.00;99.90
27890;DHT22;15238;49.082;9.102;2023-11-18T12:59:23;8.90;99.90
27890;DHT22;15238;49.082;9.102;2023-11-18T13:01:25;8.90;99.90
27890;DHT22;15238;49.082;9.102;2023-11-18T13:03:27;8.90;99.90
27890;DHT22;15238;49.082;9.102;2023-11-18T13:05:28;8.90;99.90
27890;DHT22;15238;49.082;9.102;2023-11-18T13:07:30;8.80;99.90
27890;DHT22;15238;49.082;9.102;2023-11-18T13:09:30;8.80;99.90
27890;DHT22;15238;49.082;9.102;2023-11-18T13:11:32;8.80;99.90
27890;DHT22;15238;49.082;9.102;2023-11-18T13:13:34;8.80;99.90
27890;DHT22;15238;49.082;9.102;2023-11-18T13:15:36;8.80;99.90
27890;DHT22;15238;49.082;9.102;2023-11-18T13:17:36;8.80;99.90
27890;DHT22;15238;49.082;9.102;2023-11-18T13:19:38;8.80;99.90
27890;DHT22;15238;49.082;9.102;2023-11-18T13:21:40;8.80;99.90
27890;DHT22;15238;49.082;9.102;2023-11-18T13:23:40;8.80;99.90
27890;DHT22;15238;49.082;9.102;2023-11-18T13:25:42;8.80;99.90